Time;durP1;ratioP1;P1;durP2;ratioP2;P2;SDS_P1;SDS_P2;PMS_P1;PMS_P2;Temp;Humidity;BMP_temperature;BMP_pressure;BME280_temperature;BME280_humidity;BME280_pressure;Samples;Min_cycle;Max_cycle;Signal;HPM_P1;HPM_P2
2022/09/02 00:00:16;;;;;;;2.60;2.40;;;21.40;99.90;;;;;;4958130;28;20447;-82
2022/09/02 00:02:44;;;;;;;2.33;2.13;;;21.50;96.90;;;;;;4964105;28;20447;-82
2022/09/02 00:05:14;;;;;;;1.97;1.87;;;21.40;99.90;;;;;;4959589;28;20459;-81
2022/09/02 00:07:42;;;;;;;2.70;2.20;;;21.40;99.50;;;;;;4954207;28;20506;-81
2022/09/02 00:10:10;;;;;;;2.03;1.83;;;21.40;99.70;;;;;;4953079;28;20460;-82
2022/09/02 00:12:38;;;;;;;2.30;1.93;;;21.30;99.90;;;;;;4963852;28;20491;-82
2022/09/02 00:15:07;;;;;;;2.27;2.07;;;21.30;99.20;;;;;;4962878;28;20509;-82
2022/09/02 00:17:35;;;;;;;2.10;1.90;;;21.30;97.40;;;;;;4955763;28;20550;-83
2022/09/02 00:20:04;;;;;;;2.63;2.43;;;21.30;99.20;;;;;;4954516;28;20542;-82
2022/09/02 00:22:34;;;;;;;1.87;1.77;;;21.30;97.20;;;;;;4960011;28;20536;-81
2022/09/02 00:25:02;;;;;;;3.10;1.70;;;21.30;99.10;;;;;;4958003;28;20459;-82
2022/09/02 00:27:30;;;;;;;2.50;1.90;;;21.20;98.70;;;;;;4957126;28;20468;-84
2022/09/02 00:29:58;;;;;;;2.97;2.43;;;21.20;98.40;;;;;;4961951;28;20862;-81
2022/09/02 00:32:27;;;;;;;2.30;2.10;;;21.20;99.90;;;;;;4958252;28;20520;-81
2022/09/02 00:34:57;;;;;;;2.33;2.23;;;21.30;99.70;;;;;;4947218;28;20520;-81
2022/09/02 00:37:26;;;;;;;1.90;1.80;;;21.20;97.30;;;;;;4946471;28;20457;-81
2022/09/02 00:39:56;;;;;;;1.70;1.60;;;21.30;96.50;;;;;;4965770;28;20464;-82
2022/09/02 00:42:26;;;;;;;2.20;2.10;;;21.30;99.90;;;;;;4955243;28;20460;-81
2022/09/02 00:44:54;;;;;;;2.43;2.30;;;21.20;99.30;;;;;;4963373;28;20456;-80
2022/09/02 00:47:26;;;;;;;3.93;2.00;;;21.20;99.90;;;;;;4961905;28;20472;-83
2022/09/02 00:49:54;;;;;;;3.13;2.27;;;21.20;99.90;;;;;;4967847;28;20502;-83
2022/09/02 00:52:28;;;;;;;2.93;2.23;;;21.10;99.90;;;;;;4965416;28;21010;-81
2022/09/02 00:55:01;;;;;;;2.13;1.93;;;21.10;99.20;;;;;;4960909;28;21892;-81
2022/09/02 00:57:34;;;;;;;2.20;2.00;;;21.00;98.10;;;;;;4958311;28;20468;-83
2022/09/02 01:00:07;;;;;;;2.20;2.10;;;21.00;99.30;;;;;;4963509;28;20452;-82
2022/09/02 01:02:37;;;;;;;2.50;2.30;;;21.00;99.50;;;;;;4962608;28;20476;-84
2022/09/02 01:05:08;;;;;;;5.20;2.67;;;20.90;99.30;;;;;;4962671;28;20463;-84
2022/09/02 01:07:38;;;;;;;2.10;2.00;;;20.80;99.50;;;;;;4966582;28;20453;-80
2022/09/02 01:10:11;;;;;;;2.83;2.63;;;20.90;97.30;;;;;;4956150;28;20463;-82
2022/09/02 01:12:40;;;;;;;2.43;2.23;;;20.80;97.80;;;;;;4959401;28;20467;-81
2022/09/02 01:15:10;;;;;;;2.43;2.23;;;20.80;98.40;;;;;;4957277;28;20913;-83
2022/09/02 01:17:42;;;;;;;1.97;1.87;;;20.80;96.50;;;;;;4958456;28;20479;-81
2022/09/02 01:20:15;;;;;;;2.03;1.93;;;20.70;96.10;;;;;;4952921;28;20841;-82
2022/09/02 01:22:45;;;;;;;2.10;1.90;;;20.80;96.40;;;;;;4973318;28;20455;-81
2022/09/02 01:25:18;;;;;;;2.30;2.07;;;20.70;97.00;;;;;;4959464;28;20483;-80
2022/09/02 01:27:47;;;;;;;2.47;1.97;;;20.70;95.20;;;;;;4952723;28;20459;-81
2022/09/02 01:30:18;;;;;;;2.03;1.93;;;20.70;96.20;;;;;;4952027;28;20883;-81
2022/09/02 01:32:46;;;;;;;2.50;1.97;;;20.70;95.80;;;;;;4962680;28;20538;-82
2022/09/02 01:35:16;;;;;;;1.83;1.70;;;20.70;98.60;;;;;;4962727;28;20453;-81
2022/09/02 01:37:47;;;;;;;1.60;1.50;;;20.70;97.00;;;;;;4960579;28;20448;-80
2022/09/02 01:40:24;;;;;;;2.27;2.00;;;20.70;99.30;;;;;;4962471;28;20517;-81
2022/09/02 01:42:55;;;;;;;2.17;2.00;;;20.70;97.10;;;;;;4964545;28;20963;-80
2022/09/02 01:45:24;;;;;;;2.67;2.47;;;20.70;98.00;;;;;;4962888;28;20833;-82
2022/09/02 01:47:52;;;;;;;2.00;1.90;;;20.70;98.50;;;;;;4961207;28;20451;-81
2022/09/02 01:50:21;;;;;;;2.10;2.00;;;20.60;99.90;;;;;;4954779;28;20494;-84
2022/09/02 01:52:50;;;;;;;2.30;2.10;;;20.60;99.90;;;;;;4952505;28;20508;-80
2022/09/02 01:55:18;;;;;;;2.40;2.20;;;20.60;99.90;;;;;;4956699;28;20546;-81
2022/09/02 01:57:47;;;;;;;2.80;2.20;;;20.50;98.20;;;;;;4949716;28;20444;-81
2022/09/02 02:00:16;;;;;;;2.30;2.20;;;20.50;97.10;;;;;;4949429;28;20460;-81
2022/09/02 02:02:44;;;;;;;2.47;2.27;;;20.40;95.80;;;;;;4954938;28;20448;-81
2022/09/02 02:05:12;;;;;;;2.77;2.57;;;20.50;97.90;;;;;;4956002;28;20456;-82
2022/09/02 02:07:41;;;;;;;2.17;2.00;;;20.40;96.50;;;;;;4948962;28;20457;-82
2022/09/02 02:10:12;;;;;;;2.80;2.60;;;20.40;96.90;;;;;;4954897;28;20464;-81
2022/09/02 02:12:40;;;;;;;3.10;2.50;;;20.40;96.10;;;;;;4950029;28;21019;-81
2022/09/02 02:15:12;;;;;;;3.27;1.80;;;20.40;97.40;;;;;;4954002;28;20482;-81
2022/09/02 02:17:40;;;;;;;2.30;2.10;;;20.40;94.90;;;;;;4956842;28;20464;-81
2022/09/02 02:20:10;;;;;;;2.43;2.00;;;20.30;95.70;;;;;;4957758;28;20464;-81
2022/09/02 02:22:39;;;;;;;2.13;1.97;;;20.30;95.50;;;;;;4949412;28;20472;-81
2022/09/02 02:25:08;;;;;;;2.00;1.90;;;20.30;99.90;;;;;;4951021;28;20949;-81
2022/09/02 02:27:37;;;;;;;2.13;1.93;;;20.20;95.90;;;;;;4950336;28;20468;-81
2022/09/02 02:30:12;;;;;;;2.13;1.93;;;20.20;97.00;;;;;;4950514;28;20507;-82
2022/09/02 02:32:42;;;;;;;1.97;1.73;;;20.20;93.60;;;;;;4967890;28;20463;-81
2022/09/02 02:35:10;;;;;;;1.70;1.60;;;20.20;93.00;;;;;;4954405;28;20487;-81
2022/09/02 02:37:38;;;;;;;1.60;1.50;;;20.10;94.80;;;;;;4959192;28;20464;-81
2022/09/02 02:40:09;;;;;;;2.37;2.17;;;20.20;96.10;;;;;;4967404;28;20455;-78
2022/09/02 02:42:39;;;;;;;1.90;1.77;;;20.10;92.00;;;;;;4963344;28;20449;-82
2022/09/02 02:45:11;;;;;;;1.60;1.50;;;20.10;92.20;;;;;;4949761;28;20452;-82
2022/09/02 02:47:44;;;;;;;1.73;1.60;;;20.10;92.70;;;;;;4959492;28;20487;-82
2022/09/02 02:50:15;;;;;;;1.60;1.50;;;20.10;92.40;;;;;;4954473;28;20491;-81
2022/09/02 02:52:43;;;;;;;1.63;1.43;;;20.10;92.40;;;;;;4956041;28;20519;-80
2022/09/02 02:55:13;;;;;;;2.33;1.50;;;20.10;94.30;;;;;;4955233;28;20523;-81
2022/09/02 02:57:43;;;;;;;1.50;1.40;;;20.10;92.00;;;;;;4958569;28;20472;-81
2022/09/02 03:00:14;;;;;;;1.40;1.30;;;20.10;93.60;;;;;;4954263;28;20472;-81
2022/09/02 03:02:43;;;;;;;1.93;1.60;;;20.10;90.80;;;;;;4957988;28;20583;-82
2022/09/02 03:05:12;;;;;;;1.70;1.47;;;20.10;93.10;;;;;;4956269;28;20459;-80
2022/09/02 03:07:41;;;;;;;1.70;1.60;;;20.20;91.90;;;;;;4951463;28;20473;-81
2022/09/02 03:10:13;;;;;;;1.40;1.30;;;20.10;92.70;;;;;;4957228;28;20467;-82
2022/09/02 03:12:46;;;;;;;1.70;1.60;;;20.20;91.80;;;;;;4955289;28;20495;-82
2022/09/02 03:15:17;;;;;;;2.20;1.57;;;20.20;90.80;;;;;;4954485;28;20491;-82
2022/09/02 03:17:45;;;;;;;1.40;1.30;;;20.20;98.40;;;;;;4947732;28;20459;-81
2022/09/02 03:20:15;;;;;;;1.30;1.20;;;20.20;90.40;;;;;;4950301;28;20465;-82
2022/09/02 03:22:44;;;;;;;1.87;1.37;;;20.20;89.70;;;;;;4957967;28;20469;-82
2022/09/02 03:25:15;;;;;;;1.57;1.47;;;20.20;88.40;;;;;;4954830;28;20463;-82
2022/09/02 03:27:46;;;;;;;1.40;1.30;;;20.20;89.40;;;;;;4957735;28;20985;-81
2022/09/02 03:30:18;;;;;;;1.40;1.30;;;20.20;91.40;;;;;;4957519;28;20471;-80
2022/09/02 03:32:46;;;;;;;1.37;1.27;;;20.20;96.40;;;;;;4953491;28;20467;-81
2022/09/02 03:35:17;;;;;;;1.60;1.50;;;20.20;91.00;;;;;;4963839;28;20529;-84
2022/09/02 03:37:46;;;;;;;1.43;1.33;;;20.20;84.30;;;;;;4957140;28;20972;-81
2022/09/02 03:40:17;;;;;;;2.63;1.23;;;20.20;90.70;;;;;;4961384;28;20483;-84
2022/09/02 03:42:49;;;;;;;2.60;1.50;;;20.20;85.40;;;;;;4965226;28;20950;-81
2022/09/02 03:45:18;;;;;;;1.27;1.17;;;20.10;89.50;;;;;;4950234;28;20486;-81
2022/09/02 03:47:52;;;;;;;1.10;1.07;;;20.10;83.80;;;;;;4955731;28;20455;-81
2022/09/02 03:50:22;;;;;;;1.57;1.23;;;20.10;82.50;;;;;;4954643;28;21010;-83
2022/09/02 03:52:51;;;;;;;1.40;1.30;;;20.00;82.50;;;;;;4953936;28;20504;-83
2022/09/02 03:55:19;;;;;;;1.23;1.13;;;20.10;83.60;;;;;;4952514;28;20487;-82
2022/09/02 03:57:49;;;;;;;1.40;1.30;;;20.10;86.40;;;;;;4954763;28;20464;-83
2022/09/02 04:00:22;;;;;;;2.60;1.27;;;20.10;88.00;;;;;;4952468;28;20467;-81
2022/09/02 04:02:51;;;;;;;1.50;1.40;;;20.10;80.90;;;;;;4953098;28;20463;-82
2022/09/02 04:05:21;;;;;;;2.20;1.47;;;20.10;82.80;;;;;;4957351;28;20475;-82
2022/09/02 04:07:51;;;;;;;1.83;1.30;;;20.10;85.60;;;;;;4954965;28;20463;-81
2022/09/02 04:10:20;;;;;;;1.53;1.43;;;20.00;84.90;;;;;;4953771;28;20537;-81
2022/09/02 04:12:51;;;;;;;1.37;1.27;;;20.00;82.40;;;;;;4954480;28;20445;-81
2022/09/02 04:15:20;;;;;;;1.50;1.30;;;20.00;82.60;;;;;;4950320;28;20491;-81
2022/09/02 04:21:12;;;;;;;1.30;1.20;;;20.00;79.50;;;;;;4954425;28;20455;-81
2022/09/02 04:23:42;;;;;;;2.30;1.60;;;19.90;80.80;;;;;;4963987;28;20459;-83
2022/09/02 04:26:12;;;;;;;2.93;1.50;;;19.90;84.70;;;;;;4963690;28;21018;-80
2022/09/02 04:28:42;;;;;;;2.20;1.33;;;19.90;80.50;;;;;;4970041;28;20547;-84
2022/09/02 04:31:13;;;;;;;1.70;1.60;;;19.80;89.10;;;;;;4959450;28;20467;-81
2022/09/02 04:33:41;;;;;;;1.53;1.43;;;19.80;81.40;;;;;;4968592;28;20821;-82
2022/09/02 04:36:12;;;;;;;1.60;1.50;;;19.80;82.10;;;;;;4963374;28;20494;-81
2022/09/02 04:38:42;;;;;;;1.70;1.60;;;19.80;82.50;;;;;;4949183;28;20826;-82
2022/09/02 04:41:13;;;;;;;1.70;1.50;;;19.80;86.00;;;;;;4956614;28;20484;-81
2022/09/02 04:43:42;;;;;;;1.60;1.50;;;19.80;83.70;;;;;;4952347;28;20479;-81
2022/09/02 04:46:13;;;;;;;1.97;1.87;;;20.20;87.30;;;;;;4954604;28;20999;-82
2022/09/02 04:48:43;;;;;;;2.97;1.73;;;19.80;83.80;;;;;;4957576;28;20465;-81
2022/09/02 04:51:14;;;;;;;2.63;2.43;;;19.70;85.70;;;;;;4958822;28;20471;-81
2022/09/02 04:53:43;;;;;;;4.53;2.50;;;19.80;85.40;;;;;;4960028;28;20455;-81
2022/09/02 04:56:13;;;;;;;2.03;1.73;;;19.80;86.30;;;;;;4961797;28;20490;-80
2022/09/02 04:58:44;;;;;;;1.93;1.83;;;19.80;87.20;;;;;;4960640;28;21144;-79
2022/09/02 05:01:15;;;;;;;3.07;2.77;;;19.70;96.10;;;;;;4959786;28;20834;-82
2022/09/02 05:03:44;;;;;;;2.00;1.80;;;19.70;88.40;;;;;;4946113;28;20471;-82
2022/09/02 05:06:15;;;;;;;2.10;1.90;;;19.70;87.80;;;;;;4961005;28;20475;-82
2022/09/02 05:08:46;;;;;;;1.63;1.53;;;19.60;86.70;;;;;;4958850;28;20462;-82
2022/09/02 05:11:17;;;;;;;3.40;2.00;;;19.60;86.70;;;;;;4959891;29;20467;-81
2022/09/02 05:13:50;;;;;;;1.50;1.40;;;19.60;90.00;;;;;;4958801;29;20463;-81
2022/09/02 05:16:20;;;;;;;3.03;2.57;;;19.60;88.70;;;;;;4958374;28;20506;-81
2022/09/02 05:18:50;;;;;;;1.87;1.77;;;19.60;90.70;;;;;;4944873;29;20496;-82
2022/09/02 05:21:18;;;;;;;2.70;2.40;;;19.60;89.60;;;;;;4956521;29;20460;-81
2022/09/02 05:23:47;;;;;;;2.07;1.77;;;19.60;92.40;;;;;;4956512;29;20459;-83
2022/09/02 05:26:15;;;;;;;2.33;2.13;;;19.60;92.10;;;;;;4969191;28;20504;-83
2022/09/02 05:28:44;;;;;;;2.07;1.97;;;19.60;92.20;;;;;;4953631;29;20468;-82
2022/09/02 05:31:16;;;;;;;2.17;2.07;;;19.60;91.20;;;;;;4951903;28;20474;-81
2022/09/02 05:33:47;;;;;;;1.60;1.50;;;19.60;90.60;;;;;;4950532;29;21072;-81
2022/09/02 05:36:17;;;;;;;1.60;1.50;;;19.60;93.50;;;;;;4949176;28;20526;-81
2022/09/02 05:38:46;;;;;;;3.10;2.90;;;19.60;90.30;;;;;;4958768;29;20464;-82
2022/09/02 05:41:22;;;;;;;1.80;1.70;;;19.60;89.80;;;;;;4957695;29;20451;-81
2022/09/02 05:43:51;;;;;;;1.30;1.20;;;19.60;90.20;;;;;;4940608;28;20464;-82
2022/09/02 05:46:23;;;;;;;2.00;1.90;;;19.60;90.30;;;;;;4953178;28;20478;-82
2022/09/02 05:49:11;;;;;;;2.10;1.90;;;19.60;90.30;;;;;;4957973;28;21192;-81
2022/09/02 05:51:42;;;;;;;2.73;1.80;;;19.60;89.90;;;;;;4958289;28;20466;-80
2022/09/02 05:54:13;;;;;;;2.27;1.97;;;19.60;90.70;;;;;;4953285;28;20474;-83
2022/09/02 05:56:43;;;;;;;2.00;1.80;;;19.60;91.40;;;;;;4940369;29;20485;-81
2022/09/02 05:59:12;;;;;;;1.93;1.60;;;19.60;90.80;;;;;;4959203;28;20474;-81
2022/09/02 06:01:42;;;;;;;2.00;1.80;;;19.70;94.40;;;;;;4949550;28;20563;-82
2022/09/02 06:04:10;;;;;;;1.87;1.67;;;19.70;91.70;;;;;;4944713;28;20478;-84
2022/09/02 06:06:39;;;;;;;2.03;1.93;;;19.80;92.80;;;;;;4957770;28;20558;-84
2022/09/02 06:09:08;;;;;;;2.10;2.00;;;19.80;92.60;;;;;;4950385;28;20450;-84
2022/09/02 06:11:39;;;;;;;1.97;1.40;;;19.80;91.50;;;;;;4959081;28;20200;-84
2022/09/02 06:14:07;;;;;;;1.60;1.50;;;19.90;92.20;;;;;;4955218;28;20648;-82
2022/09/02 06:16:37;;;;;;;1.93;1.50;;;20.00;93.30;;;;;;4959055;28;21055;-83
2022/09/02 06:19:08;;;;;;;1.67;1.57;;;20.00;92.10;;;;;;4960610;28;20455;-82
2022/09/02 06:21:37;;;;;;;1.50;1.40;;;20.00;93.80;;;;;;4953710;28;20462;-84
2022/09/02 06:24:06;;;;;;;4.17;1.50;;;20.20;92.80;;;;;;4958497;28;20451;-84
2022/09/02 06:26:34;;;;;;;2.90;1.40;;;20.20;93.30;;;;;;4943549;28;20491;-83
2022/09/02 06:29:02;;;;;;;2.40;1.77;;;20.20;93.80;;;;;;4947819;28;20471;-84
2022/09/02 06:31:31;;;;;;;1.30;1.20;;;20.20;92.50;;;;;;4940996;28;20452;-83
2022/09/02 06:34:03;;;;;;;1.50;1.40;;;20.30;92.20;;;;;;4941966;28;20450;-83
2022/09/02 06:36:32;;;;;;;1.57;1.47;;;20.40;93.40;;;;;;4958798;28;20495;-83
2022/09/02 06:39:02;;;;;;;1.53;1.43;;;20.40;93.90;;;;;;4948118;28;20542;-83
2022/09/02 06:41:32;;;;;;;1.70;1.40;;;20.50;94.70;;;;;;4954265;28;20777;-82
2022/09/02 06:44:03;;;;;;;3.40;1.90;;;20.60;94.70;;;;;;4952102;28;20464;-84
2022/09/02 06:46:36;;;;;;;2.08;1.40;;;20.70;95.70;;;;;;4958175;28;20520;-81
2022/09/02 06:49:06;;;;;;;1.40;1.30;;;20.70;97.10;;;;;;4945181;28;20204;-81
2022/09/02 06:51:38;;;;;;;1.90;1.80;;;20.80;96.40;;;;;;4946950;28;20468;-81
2022/09/02 06:54:09;;;;;;;2.00;1.13;;;20.80;96.10;;;;;;4947061;28;20457;-81
2022/09/02 06:56:41;;;;;;;1.53;1.43;;;20.90;95.10;;;;;;4964894;28;21046;-82
2022/09/02 06:59:16;;;;;;;1.63;1.53;;;20.90;95.50;;;;;;4947590;28;20460;-81
2022/09/02 07:01:44;;;;;;;1.70;1.60;;;20.90;95.30;;;;;;4940722;29;20448;-82
2022/09/02 07:07:00;;;;;;;1.60;1.40;;;20.90;96.60;;;;;;4954928;28;20557;-79
2022/09/02 07:09:29;;;;;;;1.40;1.30;;;20.90;97.10;;;;;;4951197;28;20463;-81
2022/09/02 07:12:00;;;;;;;1.40;1.30;;;20.90;97.70;;;;;;4951678;29;20459;-82
2022/09/02 07:14:37;;;;;;;1.20;1.10;;;20.90;96.80;;;;;;4962000;28;20958;-81
2022/09/02 07:17:06;;;;;;;1.93;1.20;;;21.00;97.40;;;;;;4954889;28;21114;-81
2022/09/02 07:19:34;;;;;;;1.20;1.20;;;21.00;95.80;;;;;;4951689;28;20459;-82
2022/09/02 07:22:05;;;;;;;1.40;1.30;;;21.00;97.40;;;;;;4932466;28;20467;-81
2022/09/02 07:24:33;;;;;;;1.43;1.33;;;21.00;95.20;;;;;;4943708;29;20456;-80
2022/09/02 07:27:02;;;;;;;1.63;1.53;;;21.00;96.40;;;;;;4951956;28;20491;-82
2022/09/02 07:29:30;;;;;;;1.73;1.50;;;21.10;95.40;;;;;;4951440;28;20509;-82
2022/09/02 07:31:58;;;;;;;1.10;1.00;;;21.10;96.60;;;;;;4961773;28;21107;-81
2022/09/02 07:34:26;;;;;;;1.30;1.20;;;21.10;96.90;;;;;;4943772;28;20471;-80
2022/09/02 07:36:54;;;;;;;1.73;1.63;;;21.10;97.50;;;;;;4950491;28;20514;-80
2022/09/02 07:39:31;;;;;;;1.77;1.60;;;21.10;98.90;;;;;;4941646;28;20464;-81
2022/09/02 07:41:59;;;;;;;1.60;1.50;;;21.10;97.10;;;;;;4942139;29;20464;-80
2022/09/02 07:44:28;;;;;;;1.57;1.47;;;21.20;98.30;;;;;;4950491;28;20456;-81
2022/09/02 07:46:56;;;;;;;1.33;1.23;;;21.20;97.20;;;;;;4942114;28;20481;-82
2022/09/02 07:49:25;;;;;;;1.50;1.40;;;21.30;99.30;;;;;;4951814;29;20824;-82
2022/09/02 07:51:53;;;;;;;2.30;1.40;;;21.40;99.90;;;;;;4946293;29;20552;-82
2022/09/02 07:54:24;;;;;;;2.13;1.67;;;21.50;99.90;;;;;;4958875;28;20494;-81
2022/09/02 07:56:55;;;;;;;3.50;1.10;;;21.50;98.60;;;;;;4946354;28;20493;-81
2022/09/02 07:59:23;;;;;;;1.40;1.30;;;21.60;99.90;;;;;;4952752;29;20550;-79
2022/09/02 08:01:53;;;;;;;1.80;1.30;;;21.70;99.90;;;;;;4954625;28;20457;-81
2022/09/02 08:04:23;;;;;;;2.10;1.40;;;21.70;99.90;;;;;;4955618;28;20838;-81
2022/09/02 08:06:54;;;;;;;3.73;1.60;;;21.80;99.90;;;;;;4941889;28;20502;-81
2022/09/02 08:09:23;;;;;;;3.20;1.40;;;21.90;99.90;;;;;;4958710;28;20460;-82
2022/09/02 08:11:53;;;;;;;2.07;1.97;;;21.90;99.90;;;;;;4954661;29;20479;-82
2022/09/02 08:14:24;;;;;;;2.80;1.30;;;22.00;99.90;;;;;;4953889;28;20457;-81
2022/09/02 08:16:54;;;;;;;1.93;1.40;;;22.00;99.90;;;;;;4943354;28;20477;-82
2022/09/02 08:19:23;;;;;;;2.00;1.10;;;22.10;99.90;;;;;;4935439;29;20452;-82
2022/09/02 08:21:51;;;;;;;2.40;1.20;;;22.10;99.60;;;;;;4938657;28;20455;-81
2022/09/02 08:24:19;;;;;;;1.27;1.17;;;22.20;99.90;;;;;;4965154;28;20459;-81
2022/09/02 08:26:48;;;;;;;1.43;1.20;;;22.20;99.90;;;;;;4944090;28;20505;-82
2022/09/02 08:29:17;;;;;;;1.60;1.50;;;22.30;99.90;;;;;;4934759;29;20452;-83
2022/09/02 08:31:45;;;;;;;1.40;1.30;;;22.20;99.90;;;;;;4933780;29;20896;-82
2022/09/02 08:34:17;;;;;;;1.37;1.10;;;22.30;99.50;;;;;;4956101;28;20826;-83
2022/09/02 08:36:45;;;;;;;1.30;1.20;;;22.30;99.90;;;;;;4943801;28;20481;-82
2022/09/02 08:39:24;;;;;;;2.00;1.37;;;22.30;99.70;;;;;;4953917;29;20451;-83
2022/09/02 08:42:01;;;;;;;1.57;1.47;;;22.30;99.90;;;;;;4952945;28;20550;-82
2022/09/02 08:44:38;;;;;;;1.30;1.20;;;22.30;97.30;;;;;;4951820;29;20502;-82
2022/09/02 08:47:13;;;;;;;1.60;1.33;;;22.40;98.70;;;;;;4934372;29;20861;-83
2022/09/02 08:49:44;;;;;;;1.00;1.00;;;22.40;98.10;;;;;;4936447;29;20456;-82
2022/09/02 08:52:20;;;;;;;1.50;1.40;;;22.40;99.20;;;;;;4953747;29;20463;-82
2022/09/02 08:54:54;;;;;;;2.63;2.43;;;22.40;99.00;;;;;;4961949;28;20481;-81
2022/09/02 08:57:25;;;;;;;1.80;1.47;;;22.50;97.40;;;;;;4941512;29;20959;-82
2022/09/02 08:59:59;;;;;;;2.93;1.60;;;22.50;98.90;;;;;;4953159;28;20445;-81
2022/09/02 09:02:35;;;;;;;1.60;1.43;;;22.60;98.60;;;;;;4951610;28;20467;-82
2022/09/02 09:05:14;;;;;;;2.70;1.10;;;22.60;99.40;;;;;;4952316;28;20993;-82
2022/09/02 09:07:55;;;;;;;1.40;1.30;;;22.70;99.30;;;;;;4934322;29;20452;-82
2022/09/02 09:10:28;;;;;;;1.40;1.17;;;22.70;96.00;;;;;;4934038;29;20872;-82
2022/09/02 09:13:23;;;;;;;1.33;1.23;;;22.70;96.50;;;;;;4934031;29;20462;-81
2022/09/02 09:15:59;;;;;;;1.10;1.00;;;22.60;94.10;;;;;;4940631;28;20479;-83
2022/09/02 09:18:37;;;;;;;1.40;1.30;;;22.60;95.50;;;;;;4940810;28;20519;-81
2022/09/02 09:21:06;;;;;;;1.63;1.30;;;22.60;96.80;;;;;;4933811;29;20958;-82
2022/09/02 09:23:39;;;;;;;2.87;1.30;;;22.70;96.90;;;;;;4934051;29;20465;-82
2022/09/02 09:26:10;;;;;;;1.23;1.13;;;22.70;96.50;;;;;;4940503;28;20482;-81
2022/09/02 09:28:40;;;;;;;1.20;1.10;;;22.70;96.30;;;;;;4952446;28;20455;-82
2022/09/02 09:31:14;;;;;;;4.40;1.50;;;22.90;96.40;;;;;;4952219;28;20479;-82
2022/09/02 09:33:56;;;;;;;1.17;1.10;;;22.90;97.50;;;;;;4939476;29;20967;-82
2022/09/02 09:36:48;;;;;;;1.00;0.90;;;23.00;97.00;;;;;;4949491;28;20478;-80
2022/09/02 09:39:26;;;;;;;1.30;1.20;;;23.00;96.20;;;;;;4936899;28;20499;-82
2022/09/02 09:41:55;;;;;;;1.30;1.20;;;23.00;95.90;;;;;;4942147;29;21236;-82
2022/09/02 09:44:42;;;;;;;1.30;1.20;;;23.00;95.00;;;;;;4933589;29;20462;-82
2022/09/02 09:47:18;;;;;;;1.50;1.20;;;23.00;94.70;;;;;;4958724;28;20484;-82
2022/09/02 09:49:48;;;;;;;1.20;1.07;;;23.00;93.10;;;;;;4951490;29;20466;-81
2022/09/02 09:52:24;;;;;;;1.33;1.23;;;23.00;93.80;;;;;;4947511;29;20454;-81
2022/09/02 09:55:12;;;;;;;2.93;1.00;;;23.00;94.20;;;;;;4945871;28;20474;-81
2022/09/02 09:57:43;;;;;;;1.00;1.00;;;23.20;97.20;;;;;;4946802;29;20483;-81
2022/09/02 10:00:22;;;;;;;1.20;1.10;;;23.30;98.90;;;;;;4952649;29;20514;-82
2022/09/02 10:02:54;;;;;;;1.07;1.00;;;23.40;99.70;;;;;;4953036;28;20463;-81
2022/09/02 10:05:33;;;;;;;1.17;0.90;;;23.40;95.40;;;;;;4960836;28;20485;-82
2022/09/02 10:08:03;;;;;;;1.30;1.00;;;23.30;94.50;;;;;;4933194;29;20535;-82
2022/09/02 10:10:56;;;;;;;1.10;1.00;;;23.30;94.00;;;;;;4933371;29;20534;-82
2022/09/02 10:13:26;;;;;;;1.10;1.10;;;23.30;92.10;;;;;;4932795;29;20468;-80
2022/09/02 10:16:10;;;;;;;1.10;1.00;;;23.40;93.30;;;;;;4951026;28;20493;-81
2022/09/02 10:18:49;;;;;;;1.30;1.00;;;23.50;94.60;;;;;;4948119;28;20487;-81
2022/09/02 10:21:33;;;;;;;1.40;1.07;;;23.60;95.20;;;;;;4955490;28;20467;-81
2022/09/02 10:24:08;;;;;;;1.73;0.90;;;23.60;95.20;;;;;;4951902;28;20517;-81
2022/09/02 10:26:41;;;;;;;1.73;0.97;;;23.70;94.60;;;;;;4948915;28;20904;-81
2022/09/02 10:29:36;;;;;;;3.13;2.83;;;23.70;92.30;;;;;;4946781;28;20483;-82
2022/09/02 10:32:27;;;;;;;1.07;0.90;;;23.70;90.20;;;;;;4949329;28;20470;-81
2022/09/02 10:35:10;;;;;;;1.20;1.10;;;23.70;87.20;;;;;;4956010;28;20466;-82
2022/09/02 10:37:50;;;;;;;1.20;1.10;;;23.70;87.20;;;;;;4965709;28;20471;-82
2022/09/02 10:40:25;;;;;;;1.10;1.00;;;23.70;85.10;;;;;;4955045;28;20466;-83
2022/09/02 10:43:01;;;;;;;0.90;0.90;;;23.80;83.20;;;;;;4947263;28;20448;-81
2022/09/02 10:45:35;;;;;;;2.10;1.00;;;23.80;85.10;;;;;;4944242;28;20459;-83
2022/09/02 10:48:14;;;;;;;1.20;1.10;;;23.90;90.50;;;;;;4953438;28;20253;-83
2022/09/02 10:50:52;;;;;;;1.47;1.07;;;24.00;87.60;;;;;;4949500;28;20455;-82
2022/09/02 10:53:40;;;;;;;1.97;1.13;;;24.10;85.60;;;;;;4945881;28;20515;-81
2022/09/02 10:56:14;;;;;;;0.80;0.80;;;24.10;86.20;;;;;;4951528;28;20508;-82
2022/09/02 10:58:49;;;;;;;1.03;0.80;;;24.10;88.10;;;;;;4955439;28;20558;-83
2022/09/02 11:01:22;;;;;;;2.37;0.90;;;24.10;88.00;;;;;;4956502;28;20458;-81
2022/09/02 11:04:08;;;;;;;1.00;1.00;;;24.20;86.80;;;;;;4953045;28;20534;-81
2022/09/02 11:06:40;;;;;;;1.60;1.10;;;24.10;82.40;;;;;;4948134;28;21038;-83
2022/09/02 11:09:35;;;;;;;1.07;0.80;;;24.00;79.10;;;;;;4946921;28;20448;-81
2022/09/02 11:12:09;;;;;;;0.90;0.70;;;24.00;75.70;;;;;;4958357;28;20472;-82
2022/09/02 11:14:47;;;;;;;1.30;0.87;;;24.10;80.30;;;;;;4959544;28;20469;-82
2022/09/02 11:17:23;;;;;;;0.93;0.90;;;24.10;84.10;;;;;;4953231;28;20566;-81
2022/09/02 11:19:58;;;;;;;0.87;0.87;;;24.20;79.40;;;;;;4956891;28;21038;-82
2022/09/02 11:22:34;;;;;;;1.17;0.80;;;24.10;77.60;;;;;;4959541;28;20458;-82
2022/09/02 11:25:08;;;;;;;1.03;0.80;;;24.20;79.90;;;;;;4951784;28;20470;-79
2022/09/02 11:27:42;;;;;;;0.90;0.90;;;24.20;80.10;;;;;;4902623;28;1120606;-80
2022/09/02 11:30:15;;;;;;;3.70;1.17;;;24.30;85.30;;;;;;4944744;28;20209;-83
2022/09/02 11:32:50;;;;;;;1.13;1.00;;;24.40;93.90;;;;;;4945517;28;20466;-79
2022/09/02 11:35:26;;;;;;;1.10;1.00;;;24.50;76.80;;;;;;4944328;28;20471;-83
2022/09/02 11:38:01;;;;;;;1.00;1.00;;;24.50;82.50;;;;;;4949003;28;20522;-82
2022/09/02 11:40:37;;;;;;;1.00;0.77;;;24.50;78.00;;;;;;4949189;28;20452;-81
2022/09/02 11:43:20;;;;;;;0.90;0.90;;;24.40;76.30;;;;;;4945160;28;20490;-83
2022/09/02 11:46:19;;;;;;;1.50;0.80;;;24.50;73.70;;;;;;4954094;28;20484;-81
2022/09/02 11:49:07;;;;;;;0.90;0.90;;;25.00;81.20;;;;;;4947744;28;20459;-83
2022/09/02 11:52:00;;;;;;;1.10;1.00;;;24.60;78.90;;;;;;4934224;28;20472;-81
2022/09/02 11:54:35;;;;;;;1.10;0.90;;;24.70;76.80;;;;;;4943832;28;20495;-83
2022/09/02 11:57:06;;;;;;;1.07;1.00;;;24.60;74.60;;;;;;4955222;28;20509;-82
2022/09/02 12:00:06;;;;;;;1.73;0.97;;;24.60;76.10;;;;;;4946094;28;20477;-83
2022/09/02 12:02:39;;;;;;;0.83;0.83;;;24.70;75.00;;;;;;4946360;28;20487;-82
2022/09/02 12:05:46;;;;;;;0.90;0.90;;;24.70;76.80;;;;;;4944518;28;20455;-82
2022/09/02 12:09:10;;;;;;;0.90;0.90;;;24.80;76.70;;;;;;4934802;28;20464;-83
2022/09/02 12:11:53;;;;;;;1.27;0.90;;;24.80;80.00;;;;;;4936370;28;20457;-81
2022/09/02 12:15:08;;;;;;;1.00;0.93;;;24.90;79.60;;;;;;4937856;29;20451;-80
2022/09/02 12:17:45;;;;;;;1.13;0.97;;;24.80;73.10;;;;;;4900165;29;20462;-81
2022/09/02 12:20:48;;;;;;;1.00;0.90;;;24.80;79.30;;;;;;4912124;29;20495;-83
2022/09/02 12:23:55;;;;;;;1.30;1.00;;;24.80;79.20;;;;;;4938307;28;20562;-81
2022/09/02 12:26:25;;;;;;;1.13;0.90;;;24.90;76.70;;;;;;4937189;29;20494;-81
2022/09/02 12:29:11;;;;;;;1.33;0.90;;;24.80;76.60;;;;;;4946053;28;20452;-80
2022/09/02 12:31:42;;;;;;;1.00;1.00;;;24.90;81.00;;;;;;4952780;28;20448;-80
2022/09/02 12:34:56;;;;;;;1.47;1.20;;;25.00;87.40;;;;;;4953110;28;20463;-80
2022/09/02 12:37:50;;;;;;;1.13;1.03;;;25.00;86.80;;;;;;4920627;28;20561;-78
2022/09/02 12:40:35;;;;;;;1.00;0.97;;;25.10;86.00;;;;;;4943618;28;20900;-80
2022/09/02 12:43:16;;;;;;;1.63;0.97;;;25.10;79.20;;;;;;4953259;28;20544;-80
2022/09/02 12:45:46;;;;;;;0.93;0.93;;;25.00;77.70;;;;;;4951197;28;20583;-80
2022/09/02 12:48:19;;;;;;;1.20;1.10;;;25.10;82.30;;;;;;4949655;28;20456;-80
2022/09/02 12:51:05;;;;;;;1.87;1.43;;;25.10;78.90;;;;;;4955703;28;20479;-80
2022/09/02 12:53:37;;;;;;;1.07;1.00;;;25.20;80.00;;;;;;4955248;28;21273;-80
2022/09/02 12:56:16;;;;;;;1.30;1.20;;;25.20;81.90;;;;;;4950680;28;20467;-80
2022/09/02 12:58:47;;;;;;;0.93;0.93;;;25.20;78.70;;;;;;4953079;28;20523;-81
2022/09/02 13:01:25;;;;;;;1.77;1.07;;;25.20;82.50;;;;;;4956899;28;20447;-82
2022/09/02 13:04:07;;;;;;;1.10;1.00;;;25.20;82.20;;;;;;4958268;28;20982;-83
2022/09/02 13:06:53;;;;;;;1.90;1.00;;;25.30;83.00;;;;;;4949860;28;20538;-84
2022/09/02 13:09:56;;;;;;;1.00;1.00;;;25.30;80.10;;;;;;4950559;28;20449;-85
2022/09/02 13:13:09;;;;;;;1.37;1.03;;;25.40;84.00;;;;;;4952210;28;20753;-79
2022/09/02 13:16:11;;;;;;;1.20;1.10;;;25.40;84.80;;;;;;4908163;29;21900;-83
2022/09/02 13:19:21;;;;;;;1.23;0.97;;;25.50;83.90;;;;;;4954308;28;20520;-87
2022/09/02 13:22:14;;;;;;;1.30;1.20;;;25.50;82.90;;;;;;4959669;28;20956;-84
2022/09/02 13:25:22;;;;;;;0.80;0.80;;;25.40;80.60;;;;;;4958273;28;20480;-84
2022/09/02 13:28:21;;;;;;;0.90;0.90;;;25.50;84.70;;;;;;4951673;28;20481;-85